Nashville, TN (37219)

12:50 PM CDT on August 31, 2015 (GMT -0500)
APRSWXNET | | Change Station
CLOSE
Current Station
Personal Weather Station
Location: Nashville, TN
Elevation: 728 ft
Nearby Weather Stations

Elev 728 ft 36.14 °N, 86.80 °W | Updated 20 minutes ago

Partly Cloudy
Partly Cloudy
81 °F
Feels Like 83 °F
N
3
Wind Variable Wind from North
Gusts 11.0 mph

Today
High -- | Low -- °F
--% Chance of Precip.
Yesterday
High -- | Low -- °F
Precip. -- in
6:17 AM 7:16 PM
Waning Gibbous, 94% visible
Pressure 30.14 in
Visibility 10.0 miles
Clouds Few 2900 ft
Scattered Clouds 13000 ft
Scattered Clouds 25000 ft
Heat Index 83 °F
Dew Point 65 °F
Humidity 59%
Rainfall in
Snow Depth Not available.
UV 8 out of 12
Pollen 9.50 out of 12
Air Quality Not available.
Flu Activity Not available.
METAR KBNA 311653Z VRB04KT 10SM FEW029 SCT130 SCT250 27/17 A3016 RMK AO2 SLP205 T02720167
Pressure 30.14 in
Visibility 10.0 miles
Clouds Few 2900 ft
Scattered Clouds 13000 ft
Scattered Clouds 25000 ft
Heat Index 83 °F
Dew Point 65 °F
Humidity 59%
Rainfall in
Snow Depth Not available.
UV 8 out of 12
Pollen 9.50 out of 12
Air Quality Not available.
Flu Activity Not available.
METAR KBNA 311653Z VRB04KT 10SM FEW029 SCT130 SCT250 27/17 A3016 RMK AO2 SLP205 T02720167

10-Day Weather Forecast

×

Almanac

Astronomy

Aug. 31, 2015 Rise Set
Actual Time
Civil Twilight
Nautical Twilight
Astronomical Twilight
Moon
Length of Visible Light
Length of Day
Tomorrow will be .
, % of the Moon is Illuminated

Today's Extremes

State Highs State Lows

Community

WunderPhotos

Upload Photos

1,851,328 photos uploaded!

WunderBlogs® & News

Nearby

Air Quality

  Air Quality AQ Index Pollutant
Not available.

Snow Depth

Station Depth Elevation

Earthquake Activity

City Distance Mag. Time & Date
Minimum magnitude displayed is 2.5.

Coastal Water Temperatures

Place Temperature

Stations

Nearby Weather Stations

Station Location Temp. Windchill Dew Point Humidity Wind Precip. Elev Updated Type